createdAt,value
2018-06-10T00:01:34.132Z,94.70
2018-06-10T00:04:01.817Z,94.50
2018-06-10T00:06:29.369Z,94.40
2018-06-10T00:08:57.093Z,94.60
2018-06-10T00:11:24.609Z,94.70
2018-06-10T00:13:52.140Z,94.80
2018-06-10T00:16:19.805Z,94.70
2018-06-10T00:18:47.360Z,94.60
2018-06-10T00:21:14.874Z,94.70
2018-06-10T00:23:42.417Z,94.60
2018-06-10T00:26:10.001Z,94.60
2018-06-10T00:28:43.185Z,94.50
2018-06-10T00:31:10.746Z,94.30
2018-06-10T00:33:38.281Z,93.80
2018-06-10T00:36:06.789Z,93.90
2018-06-10T00:38:34.332Z,93.60
2018-06-10T00:41:02.272Z,93.60
2018-06-10T00:43:30.241Z,93.80
2018-06-10T00:45:57.829Z,93.90
2018-06-10T00:48:25.641Z,94.20
2018-06-10T00:50:53.200Z,94.50
2018-06-10T00:53:21.176Z,94.60
2018-06-10T00:55:55.537Z,94.70
2018-06-10T00:58:23.075Z,94.90
2018-06-10T01:00:50.656Z,94.80
2018-06-10T01:03:18.497Z,94.70
2018-06-10T01:05:46.061Z,94.90
2018-06-10T01:08:13.599Z,94.70
2018-06-10T01:10:41.574Z,94.70
2018-06-10T01:13:09.116Z,94.60
2018-06-10T01:15:36.679Z,94.80
2018-06-10T01:18:04.318Z,94.80
2018-06-10T01:20:31.874Z,94.90
2018-06-10T01:22:59.824Z,95.00
2018-06-10T01:25:27.474Z,95.10
2018-06-10T01:27:55.002Z,95.30
2018-06-10T01:30:22.565Z,95.30
2018-06-10T01:32:50.213Z,95.30
2018-06-10T01:35:17.774Z,95.30
2018-06-10T01:37:45.296Z,95.50
2018-06-10T01:40:13.289Z,95.40
2018-06-10T01:42:40.854Z,95.50
2018-06-10T01:45:08.573Z,95.30
2018-06-10T01:50:03.753Z,95.40
2018-06-10T01:52:31.309Z,95.50
2018-06-10T01:54:58.822Z,95.20
2018-06-10T01:57:27.333Z,95.30
2018-06-10T02:02:22.358Z,95.50
2018-06-10T02:04:50.136Z,95.60
2018-06-10T02:07:17.678Z,95.70
2018-06-10T02:09:45.208Z,96.00
2018-06-10T02:12:12.905Z,95.50
2018-06-10T02:14:40.424Z,95.30
2018-06-10T02:17:07.995Z,95.30
2018-06-10T02:19:36.013Z,95.40
2018-06-10T02:22:03.556Z,95.60
2018-06-10T02:24:31.092Z,95.50
2018-06-10T02:26:58.658Z,95.40
2018-06-10T02:29:26.200Z,95.60
2018-06-10T02:31:53.753Z,95.60
2018-06-10T02:34:21.293Z,95.60
2018-06-10T02:36:48.872Z,95.60
2018-06-10T02:39:16.408Z,95.30
2018-06-10T02:41:44.197Z,95.40
2018-06-10T02:44:11.736Z,95.30
2018-06-10T02:46:39.348Z,95.20
2018-06-10T02:49:06.886Z,95.30
2018-06-10T02:51:34.750Z,95.40
2018-06-10T02:54:02.301Z,95.50
2018-06-10T02:56:29.912Z,94.80
2018-06-10T02:58:57.461Z,94.80
2018-06-10T03:01:25.028Z,94.60
2018-06-10T03:03:52.626Z,94.30
2018-06-10T03:06:20.173Z,94.20
2018-06-10T03:08:48.281Z,94.20
2018-06-10T03:11:15.988Z,94.20
2018-06-10T03:13:43.709Z,94.10
2018-06-10T03:16:11.243Z,93.80
2018-06-10T03:18:39.100Z,94.00
2018-06-10T03:21:06.629Z,93.80
2018-06-10T03:23:34.215Z,93.70
2018-06-10T03:26:01.741Z,93.80
2018-06-10T03:28:29.318Z,93.60
2018-06-10T03:31:00.117Z,93.80
2018-06-10T03:33:27.666Z,94.30
2018-06-10T03:35:55.424Z,94.30
2018-06-10T03:38:22.973Z,94.20
2018-06-10T03:40:50.980Z,94.00
2018-06-10T03:43:18.580Z,93.80
2018-06-10T03:45:47.334Z,93.80
2018-06-10T03:48:14.909Z,93.80
2018-06-10T03:50:42.452Z,94.00
2018-06-10T03:53:09.998Z,94.00
2018-06-10T03:55:37.516Z,94.10
2018-06-10T03:58:05.042Z,93.90
2018-06-10T04:00:32.610Z,93.60
2018-06-10T04:03:00.429Z,93.50
2018-06-10T04:05:28.121Z,93.20
2018-06-10T04:07:55.689Z,93.20
2018-06-10T04:10:23.229Z,93.40
2018-06-10T04:12:50.787Z,93.50
2018-06-10T04:15:18.418Z,93.40
2018-06-10T04:17:46.357Z,93.10
2018-06-10T04:20:13.921Z,93.00
2018-06-10T04:22:41.625Z,93.10
2018-06-10T04:25:09.149Z,93.10
2018-06-10T04:27:36.704Z,93.10
2018-06-10T04:30:04.266Z,93.50
2018-06-10T04:32:31.841Z,93.60
2018-06-10T04:34:59.513Z,93.70
2018-06-10T04:37:27.545Z,93.30
2018-06-10T04:39:55.093Z,93.50
2018-06-10T04:42:22.644Z,93.20
2018-06-10T04:44:50.887Z,93.00
2018-06-10T04:47:18.919Z,92.40
2018-06-10T04:49:46.625Z,92.30
2018-06-10T04:52:14.244Z,92.50
2018-06-10T04:54:42.656Z,93.10
2018-06-10T04:57:11.604Z,93.10
2018-06-10T04:59:39.165Z,93.00
2018-06-10T05:02:06.801Z,93.20
2018-06-10T05:04:35.078Z,93.10
2018-06-10T05:07:03.171Z,92.70
2018-06-10T05:09:31.523Z,92.00
2018-06-10T05:11:59.716Z,91.90
2018-06-10T05:14:27.871Z,91.70
2018-06-10T05:16:55.955Z,91.30
2018-06-10T05:19:24.058Z,91.30
2018-06-10T05:21:51.685Z,91.50
2018-06-10T05:24:19.268Z,91.70
2018-06-10T05:26:47.105Z,91.80
2018-06-10T05:29:14.704Z,91.40
2018-06-10T05:31:42.233Z,91.60
2018-06-10T05:34:09.825Z,91.40
2018-06-10T05:36:37.350Z,90.80
2018-06-10T05:39:07.633Z,90.50
2018-06-10T05:41:35.249Z,91.00
2018-06-10T05:44:03.829Z,91.30
2018-06-10T05:46:31.364Z,91.40
2018-06-10T05:48:58.884Z,91.30
2018-06-10T05:51:26.549Z,91.10
2018-06-10T05:53:54.079Z,90.70
2018-06-10T05:56:21.794Z,90.80
2018-06-10T05:58:49.349Z,90.40
2018-06-10T06:01:16.921Z,89.80
2018-06-10T06:03:44.513Z,89.90
2018-06-10T06:06:12.101Z,88.60
2018-06-10T06:08:39.769Z,89.80
2018-06-10T06:11:07.372Z,90.40
2018-06-10T06:13:35.001Z,90.70
2018-06-10T06:16:04.063Z,89.60
2018-06-10T06:18:31.665Z,87.60
2018-06-10T06:20:59.215Z,87.80
2018-06-10T06:23:27.863Z,86.80
2018-06-10T06:25:55.572Z,86.10
2018-06-10T06:28:23.152Z,86.60
2018-06-10T06:30:50.733Z,85.60
2018-06-10T06:33:18.462Z,86.60
2018-06-10T06:35:46.017Z,88.80
2018-06-10T06:38:13.627Z,89.70
2018-06-10T06:40:41.143Z,90.30
2018-06-10T06:43:09.597Z,90.90
2018-06-10T06:45:37.134Z,91.00
2018-06-10T06:48:04.698Z,91.10
2018-06-10T06:50:32.241Z,90.90
2018-06-10T06:53:00.393Z,90.90
2018-06-10T06:55:27.989Z,90.80
2018-06-10T06:57:55.588Z,90.90
2018-06-10T07:00:23.181Z,90.70
2018-06-10T07:02:50.729Z,90.40
2018-06-10T07:05:18.653Z,90.20
2018-06-10T07:07:46.614Z,90.40
2018-06-10T07:10:14.174Z,90.60
2018-06-10T07:12:42.152Z,89.20
2018-06-10T07:15:10.046Z,89.60
2018-06-10T07:17:43.826Z,89.70
2018-06-10T07:20:11.441Z,89.30
2018-06-10T07:22:39.095Z,89.40
2018-06-10T07:25:07.173Z,89.90
2018-06-10T07:27:35.656Z,89.90
2018-06-10T07:30:03.248Z,90.30
2018-06-10T07:32:30.752Z,90.10
2018-06-10T07:35:01.123Z,90.10
2018-06-10T07:37:29.920Z,89.10
2018-06-10T07:39:57.684Z,88.10
2018-06-10T07:42:25.205Z,85.50
2018-06-10T07:44:52.746Z,85.20
2018-06-10T07:47:20.292Z,84.80
2018-06-10T07:49:47.830Z,84.40
2018-06-10T07:52:15.366Z,85.30
2018-06-10T07:54:42.948Z,84.60
2018-06-10T07:57:10.461Z,83.70
2018-06-10T07:59:38.004Z,81.90
2018-06-10T08:02:05.617Z,80.00
2018-06-10T08:04:33.161Z,80.40
2018-06-10T08:07:00.686Z,82.10
2018-06-10T08:09:28.449Z,84.00
2018-06-10T08:11:55.987Z,85.50
2018-06-10T08:14:23.824Z,85.30
2018-06-10T08:16:51.381Z,87.00
2018-06-10T08:19:18.921Z,87.80
2018-06-10T08:21:47.185Z,88.20
2018-06-10T08:24:14.747Z,87.60
2018-06-10T08:26:42.265Z,88.00
2018-06-10T08:29:09.786Z,88.90
2018-06-10T08:31:37.344Z,89.20
2018-06-10T08:34:04.981Z,89.70
2018-06-10T08:36:32.549Z,90.40
2018-06-10T08:39:00.137Z,90.70
2018-06-10T08:41:27.770Z,91.20
2018-06-10T08:43:55.313Z,90.60
2018-06-10T08:46:22.887Z,90.70
2018-06-10T08:48:50.447Z,90.90
2018-06-10T08:51:19.876Z,90.80
2018-06-10T08:53:47.401Z,91.10
2018-06-10T08:56:14.933Z,91.20
2018-06-10T08:58:42.474Z,91.40
2018-06-10T09:01:10.073Z,91.10
2018-06-10T09:03:37.659Z,91.10
2018-06-10T09:06:05.213Z,91.60
2018-06-10T09:08:33.030Z,91.50
2018-06-10T09:11:00.632Z,91.70
2018-06-10T09:13:28.156Z,91.40
2018-06-10T09:15:55.750Z,91.10
2018-06-10T09:18:23.564Z,91.00
2018-06-10T09:20:51.138Z,90.90
2018-06-10T09:23:18.661Z,91.00
2018-06-10T09:25:46.204Z,91.30
2018-06-10T09:28:13.758Z,91.30
2018-06-10T09:30:41.337Z,91.60
2018-06-10T09:33:09.409Z,91.10
2018-06-10T09:35:36.958Z,91.10
2018-06-10T09:38:04.697Z,91.00
2018-06-10T09:40:32.385Z,90.60
2018-06-10T09:43:00.137Z,90.10
2018-06-10T09:45:27.750Z,89.80
2018-06-10T09:47:55.293Z,89.30
2018-06-10T09:50:22.817Z,89.00
2018-06-10T09:52:50.669Z,88.40
2018-06-10T09:55:18.342Z,88.60
2018-06-10T09:57:46.057Z,88.40
2018-06-10T10:00:18.313Z,87.90
2018-06-10T10:02:46.076Z,88.30
2018-06-10T10:05:13.648Z,89.10
2018-06-10T10:07:41.297Z,89.40
2018-06-10T10:10:08.885Z,90.20
2018-06-10T10:12:36.421Z,90.20
2018-06-10T10:15:03.957Z,90.40
2018-06-10T10:17:31.528Z,90.20
2018-06-10T10:19:59.075Z,90.40
2018-06-10T10:22:26.637Z,89.70
2018-06-10T10:24:54.377Z,88.40
2018-06-10T10:27:21.920Z,86.40
2018-06-10T10:29:49.481Z,85.60
2018-06-10T10:32:17.045Z,85.00
2018-06-10T10:34:44.603Z,84.10
2018-06-10T10:37:12.125Z,84.10
2018-06-10T10:39:39.657Z,85.00
2018-06-10T10:42:07.181Z,83.70
2018-06-10T10:44:34.764Z,83.20
2018-06-10T10:47:02.289Z,83.00
2018-06-10T10:49:29.861Z,82.70
2018-06-10T10:51:57.827Z,81.40
2018-06-10T10:54:25.368Z,81.10
2018-06-10T10:56:52.918Z,82.00
2018-06-10T10:59:20.473Z,81.50
2018-06-10T11:01:48.068Z,82.40
2018-06-10T11:04:15.596Z,82.80
2018-06-10T11:06:43.132Z,84.30
2018-06-10T11:09:10.729Z,84.40
2018-06-10T11:11:38.527Z,83.70
2018-06-10T11:14:06.090Z,81.50
2018-06-10T11:16:33.637Z,81.00
2018-06-10T11:19:01.193Z,82.40
2018-06-10T11:21:28.717Z,78.60
2018-06-10T11:23:56.293Z,78.70
2018-06-10T11:26:23.877Z,76.30
2018-06-10T11:28:51.445Z,76.40
2018-06-10T11:31:18.990Z,75.00
2018-06-10T11:33:46.546Z,75.60
2018-06-10T11:36:14.808Z,77.80
2018-06-10T11:38:42.369Z,76.10
2018-06-10T11:41:10.041Z,74.30
2018-06-10T11:43:37.908Z,74.70
2018-06-10T11:46:05.448Z,75.20
2018-06-10T11:48:33.032Z,74.40
2018-06-10T11:51:00.595Z,73.80
2018-06-10T11:55:55.645Z,73.60
2018-06-10T11:58:23.212Z,73.80
2018-06-10T12:00:50.801Z,75.30
2018-06-10T12:03:18.375Z,77.50
2018-06-10T12:05:45.936Z,77.30
2018-06-10T12:08:13.489Z,77.60
2018-06-10T12:10:41.096Z,75.40
2018-06-10T12:13:08.646Z,75.30
2018-06-10T12:15:36.229Z,75.20
2018-06-10T12:18:03.861Z,75.80
2018-06-10T12:20:31.437Z,76.60
2018-06-10T12:22:58.990Z,76.70
2018-06-10T12:25:26.565Z,78.00
2018-06-10T12:27:54.109Z,76.90
2018-06-10T12:30:21.678Z,75.90
2018-06-10T12:32:49.240Z,74.90
2018-06-10T12:35:16.837Z,73.40
2018-06-10T12:37:44.384Z,72.20
2018-06-10T12:40:12.028Z,72.30
2018-06-10T12:42:40.885Z,73.00
2018-06-10T12:45:09.150Z,73.10
2018-06-10T12:47:36.754Z,73.20
2018-06-10T12:50:04.377Z,71.50
2018-06-10T12:52:31.942Z,71.90
2018-06-10T12:54:59.521Z,72.10
2018-06-10T12:57:27.077Z,71.70
2018-06-10T12:59:54.726Z,69.40
2018-06-10T13:02:22.928Z,70.50
2018-06-10T13:04:51.106Z,65.60
2018-06-10T13:07:19.177Z,67.50
2018-06-10T13:09:46.764Z,67.50
2018-06-10T13:12:14.389Z,68.70
2018-06-10T13:14:42.169Z,65.20
2018-06-10T13:17:09.773Z,64.60
2018-06-10T13:19:37.396Z,66.60
2018-06-10T13:22:06.203Z,66.00
2018-06-10T13:24:33.793Z,67.30
2018-06-10T13:27:01.375Z,67.50
2018-06-10T13:29:28.926Z,66.70
2018-06-10T13:31:56.785Z,66.90
2018-06-10T13:34:24.504Z,69.20
2018-06-10T13:36:52.065Z,66.60
2018-06-10T13:39:19.616Z,66.10
2018-06-10T13:41:47.221Z,65.00
2018-06-10T13:44:14.765Z,66.60
2018-06-10T13:46:42.466Z,67.10
2018-06-10T13:49:10.021Z,66.10
2018-06-10T13:51:37.585Z,67.20
2018-06-10T13:54:05.240Z,65.10
2018-06-10T13:56:39.601Z,62.80
2018-06-10T13:59:07.148Z,64.60
2018-06-10T14:01:34.719Z,65.70
2018-06-10T14:04:02.468Z,62.60
2018-06-10T14:06:30.034Z,61.40
2018-06-10T14:08:57.562Z,61.50
2018-06-10T14:11:25.127Z,58.60
2018-06-10T14:13:52.690Z,55.80
2018-06-10T14:16:20.256Z,52.40
2018-06-10T14:18:47.837Z,54.20
2018-06-10T14:21:15.413Z,54.70
2018-06-10T14:23:43.125Z,54.50
2018-06-10T14:26:10.681Z,54.50
2018-06-10T14:28:38.218Z,55.70
2018-06-10T14:31:05.856Z,55.40
2018-06-10T14:33:33.410Z,57.60
2018-06-10T14:36:01.165Z,58.10
2018-06-10T14:38:28.729Z,60.30
2018-06-10T14:40:56.326Z,59.60
2018-06-10T14:43:23.873Z,56.90
2018-06-10T14:45:52.341Z,54.30
2018-06-10T14:48:20.269Z,52.70
2018-06-10T14:50:48.056Z,52.60
2018-06-10T14:53:15.653Z,47.80
2018-06-10T14:55:43.212Z,48.90
2018-06-10T14:58:11.032Z,47.30
2018-06-10T15:00:38.585Z,48.60
2018-06-10T15:03:06.165Z,45.50
2018-06-10T15:05:33.967Z,45.30
2018-06-10T15:08:01.509Z,42.40
2018-06-10T15:10:29.113Z,42.20
2018-06-10T15:12:56.685Z,41.60
2018-06-10T15:15:24.221Z,42.30
2018-06-10T15:17:51.793Z,42.10
2018-06-10T15:20:19.400Z,40.90
2018-06-10T15:22:46.961Z,43.90
2018-06-10T15:25:14.517Z,46.70
2018-06-10T15:27:42.093Z,44.70
2018-06-10T15:30:10.413Z,46.40
2018-06-10T15:32:37.986Z,44.90
2018-06-10T15:35:05.725Z,46.40
2018-06-10T15:37:33.290Z,45.20
2018-06-10T15:40:00.833Z,44.00
2018-06-10T15:42:28.425Z,41.70
2018-06-10T15:44:55.974Z,42.60
2018-06-10T15:47:25.086Z,43.50
2018-06-10T15:49:52.633Z,44.10
2018-06-10T15:52:20.181Z,48.80
2018-06-10T15:54:47.824Z,48.60
2018-06-10T15:57:15.428Z,48.20
2018-06-10T16:02:10.445Z,48.00
2018-06-10T16:04:38.005Z,46.70
2018-06-10T16:07:05.833Z,46.90
2018-06-10T16:09:33.442Z,46.30
2018-06-10T16:12:00.975Z,45.90
2018-06-10T16:14:28.572Z,49.30
2018-06-10T16:16:56.223Z,48.10
2018-06-10T16:19:23.738Z,46.50
2018-06-10T16:21:51.680Z,43.90
2018-06-10T16:24:19.240Z,45.30
2018-06-10T16:26:47.071Z,46.00
2018-06-10T16:29:14.685Z,48.80
2018-06-10T16:31:42.232Z,51.50
2018-06-10T16:34:09.865Z,52.20
2018-06-10T16:36:37.402Z,50.40
2018-06-10T16:39:07.737Z,48.30
2018-06-10T16:41:35.313Z,48.40
2018-06-10T16:44:04.533Z,49.60
2018-06-10T16:46:32.077Z,52.30
2018-06-10T16:48:59.901Z,56.90
2018-06-10T16:51:27.473Z,54.50
2018-06-10T16:53:55.973Z,51.10
2018-06-10T16:56:23.561Z,47.40
2018-06-10T16:58:51.142Z,48.80
2018-06-10T17:03:46.300Z,51.30
2018-06-10T17:06:14.073Z,53.10
2018-06-10T17:08:41.626Z,54.80
2018-06-10T17:11:09.192Z,54.70
2018-06-10T17:13:36.753Z,52.70
2018-06-10T17:16:04.312Z,51.60
2018-06-10T17:18:31.946Z,51.90
2018-06-10T17:20:59.524Z,53.30
2018-06-10T17:23:27.108Z,53.70
2018-06-10T17:25:55.200Z,53.90
2018-06-10T17:28:22.773Z,55.50
2018-06-10T17:33:19.463Z,58.60
2018-06-10T17:35:52.250Z,60.40
2018-06-10T17:38:20.237Z,62.40
2018-06-10T17:40:48.151Z,64.80
2018-06-10T17:43:15.706Z,66.70
2018-06-10T17:45:43.270Z,66.20
2018-06-10T17:48:10.838Z,67.60
2018-06-10T17:50:38.429Z,67.30
2018-06-10T17:53:06.096Z,67.60
2018-06-10T17:55:33.697Z,68.10
2018-06-10T17:58:01.297Z,69.90
2018-06-10T18:00:29.637Z,69.10
2018-06-10T18:02:57.352Z,68.20
2018-06-10T18:05:24.957Z,69.20
2018-06-10T18:07:52.791Z,70.00
2018-06-10T18:10:20.385Z,70.20
2018-06-10T18:12:47.923Z,69.20
2018-06-10T18:15:15.481Z,69.40
2018-06-10T18:17:43.157Z,71.10
2018-06-10T18:20:10.733Z,70.40
2018-06-10T18:22:38.550Z,70.90
2018-06-10T18:25:06.214Z,71.00
2018-06-10T18:27:33.785Z,71.00
2018-06-10T18:30:01.782Z,72.10
2018-06-10T18:32:29.453Z,73.50
2018-06-10T18:34:57.005Z,73.10
2018-06-10T18:37:24.601Z,73.10
2018-06-10T18:39:52.190Z,74.30
2018-06-10T18:42:19.748Z,76.10
2018-06-10T18:44:47.821Z,76.70
2018-06-10T18:47:15.401Z,77.20
2018-06-10T18:49:42.987Z,76.30
2018-06-10T18:52:10.591Z,76.00
2018-06-10T18:54:38.179Z,75.40
2018-06-10T18:57:05.819Z,75.50
2018-06-10T18:59:33.392Z,75.90
2018-06-10T19:02:00.941Z,76.00
2018-06-10T19:04:28.505Z,76.70
2018-06-10T19:06:56.213Z,77.00
2018-06-10T19:09:23.790Z,77.10
2018-06-10T19:11:51.413Z,78.00
2018-06-10T19:14:18.994Z,78.60
2018-06-10T19:16:46.562Z,78.40
2018-06-10T19:19:14.174Z,79.60
2018-06-10T19:21:42.177Z,78.60
2018-06-10T19:24:09.788Z,79.20
2018-06-10T19:26:37.337Z,80.60
2018-06-10T19:29:04.921Z,79.90
2018-06-10T19:31:32.501Z,82.10
2018-06-10T19:34:00.185Z,80.30
2018-06-10T19:36:27.962Z,82.10
2018-06-10T19:38:55.724Z,81.70
2018-06-10T19:41:23.308Z,82.00
2018-06-10T19:43:50.873Z,81.30
2018-06-10T19:46:18.425Z,81.60
2018-06-10T19:48:46.405Z,84.10
2018-06-10T19:51:13.945Z,82.90
2018-06-10T19:53:41.515Z,82.10
2018-06-10T19:56:09.074Z,82.90
2018-06-10T19:58:36.626Z,84.50
2018-06-10T20:01:04.197Z,85.80
2018-06-10T20:05:59.939Z,86.10
2018-06-10T20:08:27.530Z,86.20
2018-06-10T20:10:55.168Z,85.10
2018-06-10T20:13:22.846Z,85.90
2018-06-10T20:15:50.448Z,86.20
2018-06-10T20:18:18.024Z,86.00
2018-06-10T20:20:46.204Z,85.50
2018-06-10T20:23:13.843Z,85.10
2018-06-10T20:25:42.517Z,85.20
2018-06-10T20:28:10.220Z,86.30
2018-06-10T20:30:37.861Z,86.30
2018-06-10T20:35:32.925Z,88.40
2018-06-10T20:38:00.520Z,87.50
2018-06-10T20:41:30.882Z,88.60
2018-06-10T20:43:58.601Z,88.50
2018-06-10T20:46:26.155Z,88.80
2018-06-10T20:48:53.689Z,88.70
2018-06-10T20:51:21.310Z,89.80
2018-06-10T20:53:48.922Z,90.20
2018-06-10T20:56:18.306Z,90.20
2018-06-10T20:58:45.845Z,88.60
2018-06-10T21:01:13.817Z,87.90
2018-06-10T21:03:41.405Z,88.70
2018-06-10T21:06:08.943Z,89.30
2018-06-10T21:08:36.503Z,90.00
2018-06-10T21:11:04.041Z,89.90
2018-06-10T21:13:31.642Z,90.30
2018-06-10T21:15:59.232Z,90.40
2018-06-10T21:18:26.784Z,90.40
2018-06-10T21:20:54.465Z,90.30
2018-06-10T21:23:22.016Z,90.40
2018-06-10T21:25:49.667Z,90.20
2018-06-10T21:28:17.241Z,90.20
2018-06-10T21:30:44.918Z,90.40
2018-06-10T21:33:12.831Z,90.80
2018-06-10T21:35:40.436Z,90.80
2018-06-10T21:38:08.984Z,91.00
2018-06-10T21:40:36.525Z,91.00
2018-06-10T21:43:04.126Z,91.10
2018-06-10T21:45:31.756Z,91.30
2018-06-10T21:47:59.326Z,91.60
2018-06-10T21:50:26.870Z,91.60
2018-06-10T21:52:54.464Z,91.70
2018-06-10T21:55:22.041Z,91.70
2018-06-10T21:57:49.690Z,91.70
2018-06-10T22:00:24.275Z,91.60
2018-06-10T22:02:52.365Z,91.60
2018-06-10T22:05:20.117Z,91.70
2018-06-10T22:07:47.686Z,91.90
2018-06-10T22:10:15.234Z,92.10
2018-06-10T22:12:42.780Z,92.40
2018-06-10T22:15:10.345Z,92.30
2018-06-10T22:17:37.877Z,92.10
2018-06-10T22:20:05.481Z,92.30
2018-06-10T22:22:33.057Z,92.10
2018-06-10T22:25:00.644Z,92.10
2018-06-10T22:27:28.189Z,91.80
2018-06-10T22:29:55.733Z,91.70
2018-06-10T22:32:23.408Z,91.80
2018-06-10T22:34:51.030Z,91.70
2018-06-10T22:37:18.605Z,91.20
2018-06-10T22:39:46.177Z,91.10
2018-06-10T22:42:13.717Z,91.10
2018-06-10T22:44:41.293Z,90.60
2018-06-10T22:47:08.850Z,90.70
2018-06-10T22:49:36.449Z,90.70
2018-06-10T22:52:04.025Z,90.70
2018-06-10T22:54:39.064Z,90.50
2018-06-10T22:57:06.922Z,91.00
2018-06-10T22:59:34.553Z,91.10
2018-06-10T23:02:02.303Z,91.20
2018-06-10T23:04:29.881Z,91.10
2018-06-10T23:06:57.793Z,90.80
2018-06-10T23:09:25.345Z,91.30
2018-06-10T23:11:52.904Z,91.00
2018-06-10T23:14:20.433Z,90.70
2018-06-10T23:16:48.019Z,90.70
2018-06-10T23:19:15.604Z,90.30
2018-06-10T23:21:43.185Z,90.00
2018-06-10T23:24:10.793Z,90.00
2018-06-10T23:26:38.375Z,90.20
2018-06-10T23:29:05.948Z,90.20
2018-06-10T23:34:01.001Z,90.10
2018-06-10T23:36:28.605Z,90.20
2018-06-10T23:38:56.377Z,90.30
2018-06-10T23:43:51.404Z,90.50
2018-06-10T23:46:19.009Z,90.50
2018-06-10T23:48:46.563Z,90.30
2018-06-10T23:51:14.796Z,90.30
2018-06-10T23:53:42.348Z,90.50
2018-06-10T23:56:10.157Z,90.30
2018-06-10T23:58:37.717Z,90.20
